First Coast — WCR9075 — position and weather

sailwx.info

Track history (hours):
 
Tides and Currents Weather Stations Pressure Air Temp Water Temp Dewpoint Dewpoint Depression Visibility Wind Speed Wind Dir Waves Ship Positions

First Coast

Owner: DANN MARINE TOWING L C, CHESAPEAKE CITY, MD. More information available from US FCC via Universal Licensing System and Coast Guard Vessel Documentation Center.

Last reported at 2017-Feb-24 15:22 UTC. Time now 2017-Feb-25 13:48 UTC.
Position N 40°52' W 073°56'.

; draft 4 m.

Type: Tug. MMSI: 367024280.

Date/timePositionNaut miles runAvg speedWind from/ knotsBaromVisibWave heightAir tempDewpointWater temp
2017-Feb-24 15:22N 40°52' W 073°56'5 6.1
2017-Feb-24 14:33N 40°48' W 073°59'6 6.3
2017-Feb-24 13:33N 40°42' W 074°02'7 6.2
2017-Feb-24 12:25N 40°35' W 074°02'56 5.6
2017-Feb-24 02:28N 39°39' W 074°05'  
2017-Feb-21 18:33N 34°42' W 076°40'2 1.7
2017-Feb-21 17:33N 34°43' W 076°42'0 0.0
2017-Feb-21 16:33N 34°43' W 076°42'0 0.0
2017-Feb-21 15:33N 34°43' W 076°42'0 0.0
2017-Feb-21 14:34N 34°43' W 076°42'6 5.8
2017-Feb-21 13:33N 34°37' W 076°41'297 8.2
2017-Feb-20 01:16N 39°32' W 075°52'2 2.6
2017-Feb-20 00:33N 39°32' W 075°50'0 0.0
2017-Feb-19 23:33N 39°32' W 075°50'0 0.0
2017-Feb-19 22:33N 39°32' W 075°50'0 0.0
2017-Feb-19 21:33N 39°32' W 075°50'0 0.0
2017-Feb-19 20:33N 39°32' W 075°50'0 0.0
2017-Feb-17 19:34N 39°32' W 075°50'  
Track history (hours):
 
Tides and Currents Weather Stations Pressure Air Temp Water Temp Dewpoint Dewpoint Depression Visibility Wind Speed Wind Dir Waves Ship Positions

First Coast

Owner: DANN MARINE TOWING L C, CHESAPEAKE CITY, MD. More information available from US FCC via Universal Licensing System and Coast Guard Vessel Documentation Center.

Last reported at 2017-Feb-24 15:22 UTC. Time now 2017-Feb-25 13:48 UTC.
Position N 40°52' W 073°56'.

; draft 4 m.

Type: Tug. MMSI: 367024280.

Date/timePositionNaut miles runAvg speedWind from/ knotsBaromVisibWave heightAir tempDewpointWater temp
2017-Feb-24 15:22N 40°52' W 073°56'5 6.1
2017-Feb-24 14:33N 40°48' W 073°59'6 6.3
2017-Feb-24 13:33N 40°42' W 074°02'7 6.2
2017-Feb-24 12:25N 40°35' W 074°02'56 5.6
2017-Feb-24 02:28N 39°39' W 074°05'  
2017-Feb-21 18:33N 34°42' W 076°40'2 1.7
2017-Feb-21 17:33N 34°43' W 076°42'0 0.0
2017-Feb-21 16:33N 34°43' W 076°42'0 0.0
2017-Feb-21 15:33N 34°43' W 076°42'0 0.0
2017-Feb-21 14:34N 34°43' W 076°42'6 5.8
2017-Feb-21 13:33N 34°37' W 076°41'297 8.2
2017-Feb-20 01:16N 39°32' W 075°52'2 2.6
2017-Feb-20 00:33N 39°32' W 075°50'0 0.0
2017-Feb-19 23:33N 39°32' W 075°50'0 0.0
2017-Feb-19 22:33N 39°32' W 075°50'0 0.0
2017-Feb-19 21:33N 39°32' W 075°50'0 0.0
2017-Feb-19 20:33N 39°32' W 075°50'0 0.0
2017-Feb-17 19:34N 39°32' W 075°50'  

Dump ship's entire track history